Time;durP1;ratioP1;P1;durP2;ratioP2;P2;SDS_P1;SDS_P2;PMS_P1;PMS_P2;Temp;Humidity;BMP_temperature;BMP_pressure;BME280_temperature;BME280_humidity;BME280_pressure;Samples;Min_cycle;Max_cycle;Signal;HPM_P1;HPM_P2
2021/11/09 00:03:44;;;;;;;;;;;2.60;99.90;;;1.43;100.00;96421.00;10515674;28;1887;-76
2021/11/09 00:08:54;;;;;;;;;;;2.60;99.90;;;1.46;100.00;96427.72;10511538;28;1970;-75
2021/11/09 00:13:57;;;;;;;;;;;2.60;99.90;;;1.48;100.00;96420.41;10513018;28;1962;-75
2021/11/09 00:19:00;;;;;;;;;;;2.60;99.90;;;1.65;100.00;96415.53;10512752;28;1796;-74
2021/11/09 00:24:04;;;;;;;;;;;2.60;99.90;;;1.78;100.00;96415.53;10510816;28;2049;-74
2021/11/09 00:29:08;;;;;;;;;;;2.80;99.90;;;1.93;100.00;96418.81;10496530;28;1906;-74
2021/11/09 00:34:11;;;;;;;;;;;2.80;99.90;;;2.09;100.00;96422.91;10497000;28;1915;-75
2021/11/09 00:39:14;;;;;;;;;;;3.00;99.90;;;2.22;100.00;96427.38;10488256;28;1881;-75
2021/11/09 00:44:18;;;;;;;;;;;3.20;99.90;;;2.41;100.00;96429.19;10510824;28;2316;-75
2021/11/09 00:49:21;;;;;;;;;;;3.20;99.90;;;2.47;100.00;96431.03;10510820;28;1984;-74
2021/11/09 00:54:24;;;;;;;;;;;3.40;99.90;;;2.55;100.00;96438.78;10508741;28;1876;-74
2021/11/09 00:59:27;;;;;;;;;;;3.50;99.90;;;2.49;100.00;96439.63;10488242;28;1879;-75
2021/11/09 01:04:31;;;;;;;;;;;3.40;99.90;;;2.47;100.00;96439.00;10491115;28;1939;-74
2021/11/09 01:09:34;;;;;;;;;;;3.50;99.90;;;2.48;100.00;96432.66;10507652;28;1980;-75
2021/11/09 01:14:37;;;;;;;;;;;3.50;99.90;;;2.33;100.00;96435.53;10504867;28;1836;-75
2021/11/09 01:19:40;;;;;;;;;;;3.40;99.90;;;2.35;100.00;96437.97;10510105;28;2052;-74
2021/11/09 01:24:43;;;;;;;;;;;3.30;99.90;;;2.31;100.00;96429.63;10511389;28;1906;-75
2021/11/09 01:29:46;;;;;;;;;;;3.30;99.90;;;2.37;100.00;96426.16;10505351;28;1914;-74
2021/11/09 01:34:49;;;;;;;;;;;3.30;99.90;;;2.36;100.00;96413.91;10506224;28;1950;-74
2021/11/09 01:39:52;;;;;;;;;;;3.40;99.90;;;2.43;100.00;96413.91;10502838;28;2078;-75
2021/11/09 01:44:55;;;;;;;;;;;3.30;99.90;;;2.55;100.00;96414.09;10519746;28;2001;-72
2021/11/09 01:49:57;;;;;;;;;;;3.50;99.90;;;2.48;100.00;96422.03;10514735;28;1963;-76
2021/11/09 01:55:01;;;;;;;;;;;3.40;99.90;;;2.58;100.00;96426.94;10520540;28;1875;-75
2021/11/09 02:00:04;;;;;;;;;;;3.60;99.90;;;2.37;100.00;96425.34;10502592;28;1949;-75
2021/11/09 02:05:07;;;;;;;;;;;3.40;99.90;;;2.42;100.00;96423.72;10514533;28;1880;-75
2021/11/09 02:10:11;;;;;;;;;;;3.40;99.90;;;2.30;100.00;96419.22;10513262;28;1951;-75
2021/11/09 02:15:19;;;;;;;;;;;3.40;99.90;;;2.30;100.00;96414.75;10517517;28;1894;-73
2021/11/09 02:20:42;;;;;;;;;;;3.30;99.90;;;2.14;100.00;96405.34;10514522;28;1506;-73
2021/11/09 02:26:05;;;;;;;;;;;3.30;99.90;;;1.97;100.00;96417.38;10513775;28;1467;-74
2021/11/09 02:31:22;;;;;;;;;;;3.20;99.90;;;1.83;100.00;96423.69;10514415;28;1973;-73
2021/11/09 02:36:25;;;;;;;;;;;3.00;99.90;;;1.66;100.00;96417.19;10497728;28;1954;-74
2021/11/09 02:41:28;;;;;;;;;;;2.90;99.90;;;1.52;100.00;96427.72;10498796;28;1889;-75
2021/11/09 02:46:50;;;;;;;;;;;2.70;99.90;;;1.39;100.00;96438.28;10513275;28;1998;-74
2021/11/09 02:51:56;;;;;;;;;;;2.60;99.90;;;1.27;100.00;96439.88;10516671;28;2309;-74
2021/11/09 02:57:02;;;;;;;;;;;;;;;1.20;100.00;96449.63;10514160;28;1880;-73
2021/11/09 03:02:10;;;;;;;;;;;2.40;99.90;;;1.21;100.00;96445.97;10517851;28;1949;-73
2021/11/09 03:07:24;;;;;;;;;;;2.40;99.90;;;1.14;100.00;96445.94;10520276;28;1864;-73
2021/11/09 03:12:27;;;;;;;;;;;2.40;99.90;;;1.06;100.00;96443.47;10513296;28;1980;-74
2021/11/09 03:17:38;;;;;;;;;;;2.40;99.90;;;1.07;100.00;96443.28;10514329;28;1942;-74
2021/11/09 03:44:20;;;;;;;;;;;1.90;99.90;;;0.68;100.00;96445.72;10516171;28;1966;-74
2021/11/09 03:49:24;;;;;;;;;;;1.90;99.90;;;0.62;100.00;96457.09;10514854;28;1791;-76
2021/11/09 03:54:29;;;;;;;;;;;1.80;99.90;;;0.62;100.00;96463.19;10518388;28;1942;-74
2021/11/09 03:59:43;;;;;;;;;;;1.80;99.90;;;0.58;100.00;96451.38;10523579;28;1930;-75
2021/11/09 04:04:49;;;;;;;;;;;1.70;99.90;;;0.56;100.00;96463.97;10514932;28;1861;-75
2021/11/09 04:10:01;;;;;;;;;;;1.70;99.90;;;0.50;100.00;96464.75;10498844;28;1941;-75
2021/11/09 04:15:15;;;;;;;;;;;1.70;99.90;;;0.50;100.00;96464.75;10510825;28;1847;-76
2021/11/09 04:20:48;;;;;;;;;;;1.70;99.90;;;0.39;100.00;96468.75;10510274;28;2069;-75
2021/11/09 04:26:14;;;;;;;;;;;1.60;99.90;;;0.37;100.00;96464.66;10504368;28;1847;-73
2021/11/09 04:31:44;;;;;;;;;;;1.60;99.90;;;0.26;100.00;96474.78;10496586;28;2004;-73
2021/11/09 04:53:20;;;;;;;;;;;1.30;99.90;;;0.12;100.00;96485.41;10509792;28;1949;-74
2021/11/09 05:09:16;;;;;;;;;;;1.30;99.90;;;0.03;100.00;96486.56;10505680;28;1380;-73
2021/11/09 05:14:19;;;;;;;;;;;;;;;-0.03;100.00;96491.59;10509227;28;1924;-75
2021/11/09 05:19:22;;;;;;;;;;;1.20;99.90;;;-0.06;100.00;96491.16;10514294;28;1780;-75
2021/11/09 05:24:26;;;;;;;;;;;;;;;-0.15;100.00;96493.09;10503158;28;1959;-74
2021/11/09 05:29:28;;;;;;;;;;;1.10;99.90;;;-0.18;100.00;96492.69;10510171;28;2082;-75
2021/11/09 05:34:33;;;;;;;;;;;1.20;99.90;;;-0.17;100.00;96500.41;10508507;28;1983;-75
2021/11/09 05:39:43;;;;;;;;;;;1.10;99.90;;;-0.20;100.00;96490.22;10512672;28;1934;-74
2021/11/09 05:44:46;;;;;;;;;;;1.00;99.90;;;-0.13;100.00;96496.38;10513032;28;1883;-76
2021/11/09 05:49:49;;;;;;;;;;;1.10;99.90;;;-0.08;100.00;96488.69;10508087;28;1887;-75
2021/11/09 05:54:52;;;;;;;;;;;1.10;99.90;;;-0.08;100.00;96482.59;10499977;28;1913;-74
2021/11/09 05:59:55;;;;;;;;;;;0.90;99.90;;;-0.03;100.00;96482.84;10490077;28;1949;-73
2021/11/09 06:04:58;;;;;;;;;;;1.20;99.90;;;0.02;100.00;96479.66;10502583;28;1910;-74
2021/11/09 06:10:01;;;;;;;;;;;1.10;99.90;;;0.19;100.00;96483.63;10509505;28;1907;-74
2021/11/09 06:15:04;;;;;;;;;;;1.00;99.90;;;0.15;100.00;96492.97;10484850;28;1979;-72
2021/11/09 06:20:07;;;;;;;;;;;1.70;99.90;;;0.15;100.00;96492.97;10497834;28;1884;-74
2021/11/09 06:25:09;;;;;;;;;;;1.20;99.90;;;0.13;100.00;96495.00;10503264;28;2014;-72
2021/11/09 06:30:12;;;;;;;;;;;1.20;99.90;;;0.27;100.00;96502.03;10511773;28;1909;-74
2021/11/09 06:35:15;;;;;;;;;;;1.30;99.90;;;0.38;100.00;96506.81;10514424;28;1926;-71
2021/11/09 06:40:18;;;;;;;;;;;1.40;99.90;;;0.40;100.00;96522.47;10515656;28;1892;-73
2021/11/09 06:45:21;;;;;;;;;;;1.50;99.90;;;0.41;100.00;96524.09;10497368;28;1919;-72
2021/11/09 06:50:24;;;;;;;;;;;1.50;99.90;;;0.37;100.00;96531.59;10515064;28;1934;-72
2021/11/09 06:55:27;;;;;;;;;;;1.40;99.90;;;0.34;100.00;96539.09;10516282;28;1892;-72
2021/11/09 07:00:30;;;;;;;;;;;1.40;99.90;;;0.40;100.00;96539.16;10521469;28;1924;-73
2021/11/09 07:05:33;;;;;;;;;;;1.60;99.90;;;0.50;100.00;96549.41;10515828;28;1918;-74
2021/11/09 07:10:36;;;;;;;;;;;1.50;99.90;;;0.36;100.00;96548.47;10519408;28;1962;-73
2021/11/09 07:15:39;;;;;;;;;;;1.40;99.90;;;0.35;100.00;96557.41;10513189;28;1955;-73
2021/11/09 07:20:42;;;;;;;;;;;1.30;99.90;;;0.44;100.00;96553.63;10515869;28;2326;-73
2021/11/09 07:25:46;;;;;;;;;;;1.50;99.90;;;0.39;100.00;96563.97;10516110;28;1916;-74
2021/11/09 07:30:57;;;;;;;;;;;1.40;99.90;;;0.25;100.00;96562.19;10520054;28;1972;-72
2021/11/09 07:36:00;;;;;;;;;;;1.40;99.90;;;0.24;100.00;96564.03;10512132;28;1764;-74
2021/11/09 07:41:03;;;;;;;;;;;1.30;99.90;;;0.35;100.00;96557.41;10524243;28;1862;-73
2021/11/09 07:46:06;;;;;;;;;;;1.40;99.90;;;0.48;100.00;96551.44;10504037;28;1931;-74
2021/11/09 07:51:09;;;;;;;;;;;1.50;99.90;;;0.65;100.00;96554.63;10519391;28;1845;-72
2021/11/09 07:56:16;;;;;;;;;;;1.70;99.90;;;0.60;100.00;96549.06;10513370;28;1945;-73
2021/11/09 08:01:27;;;;;;;;;;;1.80;99.90;;;0.80;100.00;96544.75;10513367;28;1906;-74
2021/11/09 08:06:32;;;;;;;;;;;1.80;99.90;;;0.62;100.00;96555.00;10519153;28;1919;-73
2021/11/09 08:11:38;;;;;;;;;;;1.80;99.90;;;0.53;100.00;96551.69;10515490;28;1867;-74
2021/11/09 08:16:41;;;;;;;;;;;1.70;99.90;;;0.52;100.00;96558.78;10509278;28;1899;-75
2021/11/09 08:21:43;;;;;;;;;;;1.70;99.90;;;0.54;100.00;96554.13;10514318;28;1980;-74
2021/11/09 08:26:46;;;;;;;;;;;1.60;99.90;;;0.77;100.00;96545.97;10511206;28;1876;-73
2021/11/09 08:31:49;;;;;;;;;;;1.90;99.90;;;1.12;100.00;96547.78;10509946;28;1950;-74
2021/11/09 08:36:52;;;;;;;;;;;1.80;99.90;;;1.07;100.00;96545.72;10512670;28;1919;-73
2021/11/09 08:42:10;;;;;;;;;;;2.10;99.90;;;0.95;100.00;96542.78;10514417;28;1990;-76
2021/11/09 08:47:16;;;;;;;;;;;2.00;99.90;;;0.88;100.00;96552.53;10490341;28;1954;-73
2021/11/09 08:52:20;;;;;;;;;;;2.00;99.90;;;1.19;100.00;96549.47;10514108;28;2062;-71
2021/11/09 09:08:13;;;;;;;;;;;2.30;99.90;;;1.53;100.00;96561.88;10509391;28;2331;-73
2021/11/09 09:13:16;;;;;;;;;;;2.40;99.90;;;1.76;100.00;96573.97;10498792;28;1918;-73
2021/11/09 09:18:19;;;;;;;;;;;;;;;1.92;100.00;96570.97;10511031;28;1906;-72
2021/11/09 09:23:25;;;;;;;;;;;2.70;99.90;;;2.01;100.00;96567.13;10512923;28;2101;-73
2021/11/09 09:55:36;;;;;;;;;;;4.30;99.90;;;3.73;100.00;96550.22;10498147;28;1868;-71
2021/11/09 10:00:39;;;;;;;;;;;4.50;99.90;;;3.87;100.00;96556.28;10512861;28;1864;-73
2021/11/09 10:05:42;;;;;;;;;;;4.70;99.90;;;4.02;100.00;96551.50;10514574;28;1913;-73
2021/11/09 10:10:45;;;;;;;;;;;4.90;99.90;;;4.31;100.00;96550.91;10519254;28;1875;-73
2021/11/09 10:15:48;;;;;;;;;;;5.00;99.90;;;4.60;99.39;96543.34;10515353;28;1877;-73
2021/11/09 10:20:51;;;;;;;;;;;5.30;99.90;;;4.83;94.64;96532.88;10516065;28;1862;-73
2021/11/09 10:25:57;;;;;;;;;;;5.60;99.90;;;5.11;92.00;96535.09;10512287;28;2011;-71
2021/11/09 10:31:00;;;;;;;;;;;5.80;99.90;;;5.36;90.12;96521.72;10515628;28;1932;-73
2021/11/09 10:36:03;;;;;;;;;;;6.10;99.90;;;5.25;89.78;96525.13;10522465;28;1923;-72
2021/11/09 10:41:06;;;;;;;;;;;6.20;99.90;;;5.36;88.97;96519.06;10516017;28;1868;-73
2021/11/09 10:46:09;;;;;;;;;;;6.20;99.90;;;5.47;88.09;96506.00;10515567;28;1973;-73
2021/11/09 10:51:12;;;;;;;;;;;6.30;99.90;;;5.81;85.36;96508.03;10518418;28;1884;-75
2021/11/09 10:56:21;;;;;;;;;;;6.80;99.90;;;5.81;82.33;96502.72;10513196;28;1946;-74
2021/11/09 11:06:42;;;;;;;;;;;6.70;99.90;;;5.79;79.67;96502.13;10522290;28;1892;-74
2021/11/09 11:11:45;;;;;;;;;;;6.70;99.90;;;5.78;78.58;96499.66;10517774;28;1425;-71
2021/11/09 11:16:48;;;;;;;;;;;6.90;99.90;;;5.81;78.41;96499.22;10509472;28;1294;-73
2021/11/09 11:21:51;;;;;;;;;;;6.90;99.90;;;5.90;78.38;96506.69;10509978;28;1972;-73
2021/11/09 11:26:54;;;;;;;;;;;7.00;99.90;;;5.86;78.88;96484.19;10514300;28;1282;-73
2021/11/09 11:31:56;;;;;;;;;;;7.10;99.90;;;6.05;77.75;96481.50;10509522;28;1605;-74
2021/11/09 11:36:59;;;;;;;;;;;7.10;99.90;;;6.06;78.26;96480.44;10510025;28;1921;-73
2021/11/09 11:42:02;;;;;;;;;;;7.20;99.90;;;6.04;78.10;96482.50;10515622;28;2082;-73
2021/11/09 11:47:07;;;;;;;;;;;7.20;99.90;;;5.93;78.86;96490.25;10489293;28;2031;-74
2021/11/09 11:52:10;;;;;;;;;;;7.10;99.90;;;5.82;79.25;96488.31;10522412;28;2047;-73
2021/11/09 11:57:13;;;;;;;;;;;7.00;99.90;;;5.80;78.83;96484.25;10509901;28;1874;-74
2021/11/09 12:02:16;;;;;;;;;;;7.00;99.90;;;5.93;78.61;96479.59;10518084;28;1980;-74
2021/11/09 12:07:20;;;;;;;;;;;7.00;99.90;;;5.99;78.42;96488.53;10515252;28;2093;-73
2021/11/09 12:12:23;;;;;;;;;;;7.10;99.90;;;5.91;77.38;96480.84;10511362;28;2090;-73
2021/11/09 12:17:28;;;;;;;;;;;7.10;99.90;;;5.93;76.71;96484.13;10512995;28;1957;-73
2021/11/09 12:22:31;;;;;;;;;;;7.00;99.90;;;5.92;76.82;96477.97;10500343;28;1979;-73
2021/11/09 12:27:34;;;;;;;;;;;7.00;99.90;;;5.96;76.67;96487.13;10496717;28;1954;-72
2021/11/09 12:32:37;;;;;;;;;;;7.10;99.90;;;6.08;75.97;96486.34;10503943;28;1919;-73
2021/11/09 12:37:40;;;;;;;;;;;7.20;99.90;;;6.02;78.25;96487.25;10501539;28;1966;-75
2021/11/09 12:42:43;;;;;;;;;;;7.20;99.90;;;6.05;77.66;96476.16;10514215;28;1977;-74
2021/11/09 12:47:45;;;;;;;;;;;7.20;99.90;;;6.19;77.73;96453.56;10493350;28;1894;-74
2021/11/09 12:52:48;;;;;;;;;;;7.30;99.90;;;6.06;76.82;96457.22;10508548;28;2015;-71
2021/11/09 12:57:51;;;;;;;;;;;7.20;99.90;;;5.99;74.89;96458.38;10503224;28;2174;-72
2021/11/09 13:02:56;;;;;;;;;;;7.10;99.90;;;6.04;75.30;96458.47;10529790;28;1913;-75
2021/11/09 13:08:02;;;;;;;;;;;7.10;99.90;;;5.97;75.07;96442.56;10534749;28;1907;-74
2021/11/09 13:13:06;;;;;;;;;;;7.10;99.90;;;5.94;75.19;96427.84;10510334;28;1941;-72
2021/11/09 13:18:08;;;;;;;;;;;7.10;99.90;;;5.89;76.11;96425.00;10495351;28;1914;-73
2021/11/09 13:23:12;;;;;;;;;;;7.10;99.90;;;5.90;77.06;96426.63;10510053;28;1974;-73
2021/11/09 13:28:15;;;;;;;;;;;7.00;99.90;;;5.85;76.44;96439.00;10511407;28;1883;-73
2021/11/09 13:33:21;;;;;;;;;;;7.00;99.90;;;5.94;76.18;96438.50;10516982;28;2268;-73
2021/11/09 13:38:24;;;;;;;;;;;7.00;99.90;;;5.93;77.53;96439.56;10501732;28;2120;-72
2021/11/09 13:43:28;;;;;;;;;;;7.00;99.90;;;6.04;78.25;96434.47;10517047;28;1922;-72
2021/11/09 13:48:30;;;;;;;;;;;7.10;99.90;;;5.93;79.61;96444.91;10504642;28;1437;-72
2021/11/09 13:53:34;;;;;;;;;;;7.10;99.90;;;5.91;78.96;96448.81;10509706;28;1296;-72
2021/11/09 13:58:38;;;;;;;;;;;7.00;99.90;;;5.96;79.01;96441.75;10502210;28;2090;-72
2021/11/09 14:03:53;;;;;;;;;;;7.00;99.90;;;6.04;80.24;96447.81;10514215;28;2218;-73
2021/11/09 14:09:08;;;;;;;;;;;7.10;99.90;;;6.05;80.37;96434.25;10508550;28;1890;-72
2021/11/09 14:19:29;;;;;;;;;;;7.20;99.90;;;6.00;80.91;96422.63;10493270;28;2001;-73
2021/11/09 14:24:32;;;;;;;;;;;7.20;99.90;;;6.00;80.64;96409.28;10491845;28;1974;-76
2021/11/09 14:29:36;;;;;;;;;;;7.10;99.90;;;5.94;79.59;96405.69;10504773;28;1971;-74
2021/11/09 14:34:40;;;;;;;;;;;7.00;99.90;;;5.95;79.54;96397.44;10487131;28;1946;-74
2021/11/09 14:39:46;;;;;;;;;;;7.10;99.90;;;5.88;79.69;96410.03;10509792;28;1875;-71
2021/11/09 14:44:49;;;;;;;;;;;7.00;99.90;;;5.87;79.91;96411.09;10509743;28;2478;-72
2021/11/09 14:49:57;;;;;;;;;;;7.00;99.90;;;5.86;80.10;96411.31;10505871;28;1926;-73
2021/11/09 14:55:00;;;;;;;;;;;7.00;99.90;;;5.83;80.85;96409.91;10501650;28;1935;-75
2021/11/09 15:00:04;;;;;;;;;;;6.90;99.90;;;5.73;82.37;96403.50;10516101;28;1911;-72
2021/11/09 15:05:11;;;;;;;;;;;6.90;99.90;;;5.64;84.67;96413.66;10513720;28;1953;-72
2021/11/09 15:10:30;;;;;;;;;;;6.80;99.90;;;5.55;84.14;96399.03;10503145;28;1931;-74
2021/11/09 15:26:19;;;;;;;;;;;6.50;99.90;;;5.24;85.28;96390.22;10506966;28;2018;-71
2021/11/09 15:31:27;;;;;;;;;;;6.40;99.90;;;5.10;86.59;96404.75;10509955;28;1942;-73
2021/11/09 15:36:45;;;;;;;;;;;6.30;99.90;;;4.98;87.29;96399.34;10510121;28;2034;-72
2021/11/09 15:41:48;;;;;;;;;;;6.20;99.90;;;4.87;88.07;96406.22;10520941;28;2263;-72
2021/11/09 15:46:54;;;;;;;;;;;6.10;99.90;;;4.68;88.89;96401.91;10510958;28;2088;-72
2021/11/09 15:51:59;;;;;;;;;;;5.90;99.90;;;4.68;88.02;96401.91;10514835;28;1406;-72
2021/11/09 15:57:21;;;;;;;;;;;5.80;99.90;;;4.58;87.43;96398.94;10517155;28;2208;-74
2021/11/09 16:02:25;;;;;;;;;;;5.70;99.90;;;4.55;87.05;96404.72;10514643;28;2272;-73
2021/11/09 16:07:28;;;;;;;;;;;5.70;99.90;;;4.46;86.82;96392.75;10516792;28;2204;-71
2021/11/09 16:12:31;;;;;;;;;;;5.60;99.90;;;4.39;87.16;96399.94;10520953;28;2218;-72
2021/11/09 16:17:34;;;;;;;;;;;5.50;99.90;;;4.33;86.20;96410.47;10521510;28;1884;-74
2021/11/09 16:22:37;;;;;;;;;;;5.40;99.90;;;4.34;85.62;96406.75;10499380;28;1940;-73
2021/11/09 16:27:40;;;;;;;;;;;5.40;99.90;;;4.24;86.59;96401.09;10499477;28;1957;-73
2021/11/09 16:32:43;;;;;;;;;;;5.40;99.90;;;4.16;86.45;96385.41;10513533;28;1917;-74
2021/11/09 16:37:46;;;;;;;;;;;5.30;99.90;;;4.14;87.43;96400.00;10508451;28;1882;-74
2021/11/09 16:42:52;;;;;;;;;;;5.30;99.90;;;4.10;87.50;96388.94;10495869;28;2221;-72
2021/11/09 16:47:58;;;;;;;;;;;5.20;99.90;;;4.00;88.09;96377.97;10506752;28;1911;-74
2021/11/09 16:53:02;;;;;;;;;;;5.10;99.90;;;3.91;88.93;96381.94;10491292;28;1918;-73
2021/11/09 18:13:26;;;;;;;;;;;4.40;99.90;;;3.21;97.67;96353.56;10466668;28;1929;-72
2021/11/09 18:23:59;;;;;;;;;;;4.30;99.90;;;3.19;98.78;96342.34;10447915;28;1975;-73
2021/11/09 18:29:02;;;;;;;;;;;4.30;99.90;;;3.13;99.45;96335.22;10459902;28;1972;-74
2021/11/09 18:34:05;;;;;;;;;;;4.30;99.90;;;3.07;99.89;96330.78;10462982;28;2022;-73
2021/11/09 18:39:08;;;;;;;;;;;4.20;99.90;;;2.92;100.00;96339.00;10465988;28;1948;-72
2021/11/09 18:44:11;;;;;;;;;;;4.20;99.90;;;2.81;100.00;96352.97;10466323;28;1894;-73
2021/11/09 18:49:16;;;;;;;;;;;4.10;99.90;;;2.80;100.00;96356.63;10463310;28;1357;-74
2021/11/09 18:54:19;;;;;;;;;;;4.00;99.90;;;2.87;100.00;96343.34;10468861;28;1360;-74
2021/11/09 18:59:22;;;;;;;;;;;4.00;99.90;;;2.69;100.00;96374.03;10467946;28;1395;-72
2021/11/09 19:04:25;;;;;;;;;;;3.90;99.90;;;2.66;100.00;96361.16;10467468;28;1981;-72
2021/11/09 19:09:28;;;;;;;;;;;3.90;99.90;;;2.78;100.00;96357.84;10461908;28;1404;-73
2021/11/09 19:14:31;;;;;;;;;;;3.80;99.90;;;2.81;100.00;96346.84;10469628;28;1697;-74
2021/11/09 19:19:34;;;;;;;;;;;3.90;99.90;;;2.83;100.00;96350.09;10438707;28;1667;-74
2021/11/09 19:24:37;;;;;;;;;;;4.00;99.90;;;2.77;100.00;96346.44;10438929;28;1914;-73
2021/11/09 19:29:41;;;;;;;;;;;3.90;99.90;;;2.61;100.00;96341.59;10436849;28;1441;-74
2021/11/09 19:34:44;;;;;;;;;;;3.90;99.90;;;2.56;100.00;96354.69;10440938;28;1430;-74
2021/11/09 19:39:47;;;;;;;;;;;3.70;99.90;;;2.65;100.00;96354.22;10437948;28;1441;-74
2021/11/09 19:44:50;;;;;;;;;;;3.70;99.90;;;2.70;100.00;96367.69;10436453;28;1919;-74
2021/11/09 19:49:53;;;;;;;;;;;3.80;99.90;;;2.56;100.00;96382.03;10435131;28;1366;-74
2021/11/09 19:54:56;;;;;;;;;;;3.70;99.90;;;2.48;100.00;96379.56;10443014;28;1383;-74
2021/11/09 20:00:00;;;;;;;;;;;3.70;99.90;;;2.39;100.00;96384.31;10439912;28;1401;-73
2021/11/09 20:05:03;;;;;;;;;;;3.60;99.90;;;2.35;100.00;96390.22;10438318;28;1914;-73
2021/11/09 20:10:05;;;;;;;;;;;3.60;99.90;;;2.38;100.00;96384.50;10439853;28;1410;-74
2021/11/09 20:15:09;;;;;;;;;;;3.60;99.90;;;2.37;100.00;96388.19;10437188;28;1361;-72
2021/11/09 20:20:12;;;;;;;;;;;3.60;99.90;;;2.36;100.00;96390.03;10438934;28;1508;-73
2021/11/09 20:25:17;;;;;;;;;;;3.60;99.90;;;2.32;100.00;96382.69;10437921;28;1981;-75
2021/11/09 20:30:19;;;;;;;;;;;3.60;99.90;;;2.31;100.00;96379.22;10437529;28;1659;-73
2021/11/09 20:35:22;;;;;;;;;;;3.50;99.90;;;2.37;100.00;96372.28;10435036;28;1437;-75
2021/11/09 20:40:26;;;;;;;;;;;3.50;99.90;;;2.37;100.00;96377.59;10441962;28;1453;-75
2021/11/09 20:45:31;;;;;;;;;;;3.50;99.90;;;2.26;100.00;96367.59;10432644;28;1985;-74
2021/11/09 20:50:34;;;;;;;;;;;3.50;99.90;;;2.31;100.00;96376.56;10441174;28;1437;-72
2021/11/09 20:55:37;;;;;;;;;;;3.50;99.90;;;2.36;100.00;96371.47;10430337;28;1426;-74
2021/11/09 21:00:40;;;;;;;;;;;3.50;99.90;;;2.36;100.00;96368.00;10438542;28;1390;-75
2021/11/09 21:05:44;;;;;;;;;;;3.50;99.90;;;2.29;100.00;96375.13;10434320;28;2021;-74
2021/11/09 21:10:47;;;;;;;;;;;3.40;99.90;;;2.15;100.00;96383.09;10437749;28;1453;-75
2021/11/09 21:21:11;;;;;;;;;;;3.40;99.90;;;1.92;100.00;96393.34;10426332;28;1924;-72
2021/11/09 21:26:14;;;;;;;;;;;3.20;99.90;;;1.82;100.00;96401.69;10431334;28;1953;-74
2021/11/09 21:31:30;;;;;;;;;;;3.10;99.90;;;1.75;100.00;96398.22;10426821;28;2060;-74
2021/11/09 21:36:33;;;;;;;;;;;3.00;99.90;;;1.81;100.00;96409.84;10431908;28;1958;-74
2021/11/09 21:41:36;;;;;;;;;;;3.00;99.90;;;1.65;100.00;96404.91;10427807;28;1946;-72
2021/11/09 21:46:38;;;;;;;;;;;2.90;99.90;;;1.65;100.00;96404.91;10432650;28;1956;-73
2021/11/09 21:51:41;;;;;;;;;;;2.90;99.90;;;1.52;100.00;96408.38;10428544;28;1936;-74
2021/11/09 21:56:44;;;;;;;;;;;2.80;99.90;;;1.40;100.00;96416.09;10431569;28;1911;-73
2021/11/09 22:01:47;;;;;;;;;;;2.70;99.90;;;1.35;100.00;96426.47;10430930;28;1917;-73
2021/11/09 22:06:50;;;;;;;;;;;2.60;99.90;;;1.40;100.00;96407.31;10437784;28;1918;-73
2021/11/09 22:11:53;;;;;;;;;;;2.60;99.90;;;1.41;100.00;96414.28;10434792;28;1716;-73
2021/11/09 22:16:56;;;;;;;;;;;2.60;99.90;;;1.44;100.00;96419.16;10432841;28;1968;-73
2021/11/09 22:21:59;;;;;;;;;;;2.70;99.90;;;1.42;100.00;96416.72;10433226;28;2192;-72
2021/11/09 22:27:02;;;;;;;;;;;2.60;99.90;;;1.47;100.00;96414.28;10427563;28;1906;-74
2021/11/09 22:32:05;;;;;;;;;;;2.70;99.90;;;1.42;100.00;96405.31;10427537;28;2075;-73
2021/11/09 22:37:07;;;;;;;;;;;2.60;99.90;;;1.34;100.00;96427.50;10431667;28;1971;-73
2021/11/09 22:42:10;;;;;;;;;;;2.60;99.90;;;1.18;100.00;96428.66;10431114;28;1968;-74
2021/11/09 22:47:13;;;;;;;;;;;2.50;99.90;;;1.05;100.00;96426.78;10427685;28;1902;-74
2021/11/09 22:52:16;;;;;;;;;;;2.30;99.90;;;1.05;100.00;96418.84;10437339;28;1956;-73
2021/11/09 22:57:19;;;;;;;;;;;2.30;99.90;;;0.94;100.00;96397.41;10437681;28;1970;-73
2021/11/09 23:02:22;;;;;;;;;;;2.20;99.90;;;0.90;100.00;96394.34;10437206;28;1987;-72
2021/11/09 23:07:25;;;;;;;;;;;2.20;99.90;;;1.13;100.00;96395.84;10443674;28;1979;-73
2021/11/09 23:12:28;;;;;;;;;;;2.10;99.90;;;1.10;100.00;96401.56;10436615;28;1938;-73
2021/11/09 23:17:31;;;;;;;;;;;2.30;99.90;;;1.13;100.00;96404.59;10433585;28;2011;-72
2021/11/09 23:22:33;;;;;;;;;;;2.30;99.90;;;1.13;100.00;96398.50;10458511;28;1959;-72
2021/11/09 23:27:36;;;;;;;;;;;2.30;99.90;;;1.18;100.00;96385.47;10462281;28;1950;-73
2021/11/09 23:32:39;;;;;;;;;;;2.30;99.90;;;1.29;100.00;96392.84;10461298;28;1986;-73
2021/11/09 23:37:42;;;;;;;;;;;2.40;99.90;;;1.26;100.00;96399.34;10447641;28;1849;-73
2021/11/09 23:42:45;;;;;;;;;;;2.40;99.90;;;1.16;100.00;96403.41;10448965;28;1903;-73
2021/11/09 23:47:48;;;;;;;;;;;2.40;99.90;;;1.02;100.00;96390.13;10446233;28;1988;-72
2021/11/09 23:52:51;;;;;;;;;;;2.30;99.90;;;0.99;100.00;96401.09;10444277;28;1290;-73
2021/11/09 23:57:53;;;;;;;;;;;2.30;99.90;;;0.93;100.00;96417.75;10437022;28;1366;-74
